sensor_id;sensor_type;location;lat;lon;timestamp;P1;durP1;ratioP1;P2;durP2;ratioP2
6529;SDS011;3298;42.688;23.366;2022-10-22T00:00:56;20.47;;;13.83;;
6529;SDS011;3298;42.688;23.366;2022-10-22T00:03:23;20.37;;;13.40;;
6529;SDS011;3298;42.688;23.366;2022-10-22T00:05:50;21.23;;;13.60;;
6529;SDS011;3298;42.688;23.366;2022-10-22T00:08:17;22.13;;;13.70;;
6529;SDS011;3298;42.688;23.366;2022-10-22T00:10:44;25.10;;;15.90;;
6529;SDS011;3298;42.688;23.366;2022-10-22T00:13:10;21.07;;;13.50;;
6529;SDS011;3298;42.688;23.366;2022-10-22T00:15:38;18.00;;;13.20;;
6529;SDS011;3298;42.688;23.366;2022-10-22T00:18:06;25.63;;;14.10;;
6529;SDS011;3298;42.688;23.366;2022-10-22T00:20:32;19.00;;;13.90;;
6529;SDS011;3298;42.688;23.366;2022-10-22T00:22:59;18.97;;;14.07;;
6529;SDS011;3298;42.688;23.366;2022-10-22T00:25:26;20.33;;;13.23;;
6529;SDS011;3298;42.688;23.366;2022-10-22T00:27:53;22.40;;;13.77;;
6529;SDS011;3298;42.688;23.366;2022-10-22T00:30:20;22.90;;;15.00;;
6529;SDS011;3298;42.688;23.366;2022-10-22T00:32:46;21.63;;;13.43;;
6529;SDS011;3298;42.688;23.366;2022-10-22T00:35:15;18.73;;;11.83;;
6529;SDS011;3298;42.688;23.366;2022-10-22T00:37:41;16.53;;;12.73;;
6529;SDS011;3298;42.688;23.366;2022-10-22T00:40:09;16.20;;;13.27;;
6529;SDS011;3298;42.688;23.366;2022-10-22T00:42:36;17.70;;;12.33;;
6529;SDS011;3298;42.688;23.366;2022-10-22T00:45:05;14.57;;;12.17;;
6529;SDS011;3298;42.688;23.366;2022-10-22T00:47:42;17.33;;;12.10;;
6529;SDS011;3298;42.688;23.366;2022-10-22T00:50:12;17.73;;;12.87;;
6529;SDS011;3298;42.688;23.366;2022-10-22T00:52:43;22.23;;;13.27;;
6529;SDS011;3298;42.688;23.366;2022-10-22T00:55:10;19.83;;;13.73;;
6529;SDS011;3298;42.688;23.366;2022-10-22T00:57:38;18.90;;;12.57;;
6529;SDS011;3298;42.688;23.366;2022-10-22T01:00:06;16.20;;;12.17;;
6529;SDS011;3298;42.688;23.366;2022-10-22T01:02:34;18.37;;;12.40;;
6529;SDS011;3298;42.688;23.366;2022-10-22T01:05:01;15.20;;;11.47;;
6529;SDS011;3298;42.688;23.366;2022-10-22T01:07:30;19.33;;;12.40;;
6529;SDS011;3298;42.688;23.366;2022-10-22T01:10:02;17.13;;;12.30;;
6529;SDS011;3298;42.688;23.366;2022-10-22T01:12:36;21.97;;;13.27;;
6529;SDS011;3298;42.688;23.366;2022-10-22T01:15:15;19.53;;;12.53;;
6529;SDS011;3298;42.688;23.366;2022-10-22T01:17:52;18.73;;;13.23;;
6529;SDS011;3298;42.688;23.366;2022-10-22T01:23:44;17.30;;;12.77;;
6529;SDS011;3298;42.688;23.366;2022-10-22T01:26:27;20.13;;;12.57;;
6529;SDS011;3298;42.688;23.366;2022-10-22T01:29:08;19.93;;;13.30;;
6529;SDS011;3298;42.688;23.366;2022-10-22T01:31:38;13.47;;;11.57;;
6529;SDS011;3298;42.688;23.366;2022-10-22T01:34:09;19.03;;;11.40;;
6529;SDS011;3298;42.688;23.366;2022-10-22T01:36:40;19.43;;;11.57;;
6529;SDS011;3298;42.688;23.366;2022-10-22T01:39:08;21.77;;;13.40;;
6529;SDS011;3298;42.688;23.366;2022-10-22T01:41:36;20.07;;;13.63;;
6529;SDS011;3298;42.688;23.366;2022-10-22T01:46:57;18.63;;;12.40;;
6529;SDS011;3298;42.688;23.366;2022-10-22T01:49:36;19.57;;;13.70;;
6529;SDS011;3298;42.688;23.366;2022-10-22T01:52:14;18.60;;;12.97;;
6529;SDS011;3298;42.688;23.366;2022-10-22T01:54:56;20.17;;;13.13;;
6529;SDS011;3298;42.688;23.366;2022-10-22T01:57:31;22.07;;;14.63;;
6529;SDS011;3298;42.688;23.366;2022-10-22T02:00:04;19.57;;;13.93;;
6529;SDS011;3298;42.688;23.366;2022-10-22T02:02:35;17.40;;;13.20;;
6529;SDS011;3298;42.688;23.366;2022-10-22T02:05:11;17.70;;;13.03;;
6529;SDS011;3298;42.688;23.366;2022-10-22T02:07:42;17.47;;;13.03;;
6529;SDS011;3298;42.688;23.366;2022-10-22T02:10:12;18.27;;;12.67;;
6529;SDS011;3298;42.688;23.366;2022-10-22T02:12:41;18.87;;;12.77;;
6529;SDS011;3298;42.688;23.366;2022-10-22T02:15:14;20.30;;;12.47;;
6529;SDS011;3298;42.688;23.366;2022-10-22T02:17:45;21.20;;;14.07;;
6529;SDS011;3298;42.688;23.366;2022-10-22T02:20:13;22.50;;;13.97;;
6529;SDS011;3298;42.688;23.366;2022-10-22T02:22:44;19.13;;;13.33;;
6529;SDS011;3298;42.688;23.366;2022-10-22T02:25:12;23.97;;;13.30;;
6529;SDS011;3298;42.688;23.366;2022-10-22T02:27:40;18.33;;;13.77;;
6529;SDS011;3298;42.688;23.366;2022-10-22T02:30:10;21.83;;;13.10;;
6529;SDS011;3298;42.688;23.366;2022-10-22T02:32:43;20.67;;;13.47;;
6529;SDS011;3298;42.688;23.366;2022-10-22T02:35:16;21.43;;;13.30;;
6529;SDS011;3298;42.688;23.366;2022-10-22T02:37:46;18.63;;;13.67;;
6529;SDS011;3298;42.688;23.366;2022-10-22T02:40:15;22.20;;;12.03;;
6529;SDS011;3298;42.688;23.366;2022-10-22T02:42:42;16.10;;;11.87;;
6529;SDS011;3298;42.688;23.366;2022-10-22T02:45:11;17.43;;;14.17;;
6529;SDS011;3298;42.688;23.366;2022-10-22T02:47:39;26.20;;;14.23;;
6529;SDS011;3298;42.688;23.366;2022-10-22T02:50:07;19.73;;;14.73;;
6529;SDS011;3298;42.688;23.366;2022-10-22T02:52:34;21.53;;;13.80;;
6529;SDS011;3298;42.688;23.366;2022-10-22T02:55:01;20.00;;;14.47;;
6529;SDS011;3298;42.688;23.366;2022-10-22T02:57:27;19.83;;;13.73;;
6529;SDS011;3298;42.688;23.366;2022-10-22T02:59:54;20.77;;;13.90;;
6529;SDS011;3298;42.688;23.366;2022-10-22T03:02:21;19.37;;;13.07;;
6529;SDS011;3298;42.688;23.366;2022-10-22T03:04:49;17.83;;;12.93;;
6529;SDS011;3298;42.688;23.366;2022-10-22T03:07:16;18.03;;;12.57;;
6529;SDS011;3298;42.688;23.366;2022-10-22T03:09:43;21.27;;;13.63;;
6529;SDS011;3298;42.688;23.366;2022-10-22T03:12:10;19.70;;;12.93;;
6529;SDS011;3298;42.688;23.366;2022-10-22T03:14:37;21.37;;;12.57;;
6529;SDS011;3298;42.688;23.366;2022-10-22T03:17:04;22.50;;;13.20;;
6529;SDS011;3298;42.688;23.366;2022-10-22T03:19:31;22.80;;;13.63;;
6529;SDS011;3298;42.688;23.366;2022-10-22T03:21:59;20.43;;;13.57;;
6529;SDS011;3298;42.688;23.366;2022-10-22T03:24:30;29.47;;;14.30;;
6529;SDS011;3298;42.688;23.366;2022-10-22T03:27:01;19.47;;;14.30;;
6529;SDS011;3298;42.688;23.366;2022-10-22T03:29:27;28.27;;;15.00;;
6529;SDS011;3298;42.688;23.366;2022-10-22T03:31:57;20.10;;;14.10;;
6529;SDS011;3298;42.688;23.366;2022-10-22T03:34:23;23.93;;;15.20;;
6529;SDS011;3298;42.688;23.366;2022-10-22T03:36:50;22.00;;;13.43;;
6529;SDS011;3298;42.688;23.366;2022-10-22T03:39:20;22.87;;;14.10;;
6529;SDS011;3298;42.688;23.366;2022-10-22T03:41:47;25.50;;;15.80;;
6529;SDS011;3298;42.688;23.366;2022-10-22T03:44:15;23.77;;;15.67;;
6529;SDS011;3298;42.688;23.366;2022-10-22T03:46:43;24.50;;;14.30;;
6529;SDS011;3298;42.688;23.366;2022-10-22T03:49:10;21.40;;;14.23;;
6529;SDS011;3298;42.688;23.366;2022-10-22T03:51:37;20.50;;;14.30;;
6529;SDS011;3298;42.688;23.366;2022-10-22T03:54:03;26.23;;;15.77;;
6529;SDS011;3298;42.688;23.366;2022-10-22T03:56:32;23.60;;;16.63;;
6529;SDS011;3298;42.688;23.366;2022-10-22T03:58:59;30.97;;;15.50;;
6529;SDS011;3298;42.688;23.366;2022-10-22T04:01:27;21.80;;;15.33;;
6529;SDS011;3298;42.688;23.366;2022-10-22T04:03:56;29.57;;;15.60;;
6529;SDS011;3298;42.688;23.366;2022-10-22T04:06:24;26.13;;;15.93;;
6529;SDS011;3298;42.688;23.366;2022-10-22T04:08:51;22.67;;;15.20;;
6529;SDS011;3298;42.688;23.366;2022-10-22T04:11:18;19.63;;;13.53;;
6529;SDS011;3298;42.688;23.366;2022-10-22T04:13:46;24.23;;;15.50;;
6529;SDS011;3298;42.688;23.366;2022-10-22T04:16:13;23.47;;;14.03;;
6529;SDS011;3298;42.688;23.366;2022-10-22T04:18:41;24.17;;;15.40;;
6529;SDS011;3298;42.688;23.366;2022-10-22T04:21:09;28.13;;;14.03;;
6529;SDS011;3298;42.688;23.366;2022-10-22T04:23:37;24.30;;;14.13;;
6529;SDS011;3298;42.688;23.366;2022-10-22T04:26:05;23.93;;;14.77;;
6529;SDS011;3298;42.688;23.366;2022-10-22T04:28:33;24.90;;;15.10;;
6529;SDS011;3298;42.688;23.366;2022-10-22T04:31:05;24.77;;;14.80;;
6529;SDS011;3298;42.688;23.366;2022-10-22T04:33:33;18.77;;;13.30;;
6529;SDS011;3298;42.688;23.366;2022-10-22T04:36:04;24.37;;;12.80;;
6529;SDS011;3298;42.688;23.366;2022-10-22T04:38:32;19.73;;;13.90;;
6529;SDS011;3298;42.688;23.366;2022-10-22T04:41:06;21.47;;;12.83;;
6529;SDS011;3298;42.688;23.366;2022-10-22T04:43:34;18.10;;;12.03;;
6529;SDS011;3298;42.688;23.366;2022-10-22T04:46:02;20.60;;;12.37;;
6529;SDS011;3298;42.688;23.366;2022-10-22T04:48:29;19.30;;;12.20;;
6529;SDS011;3298;42.688;23.366;2022-10-22T04:50:56;16.40;;;10.87;;
6529;SDS011;3298;42.688;23.366;2022-10-22T04:53:24;16.40;;;12.27;;
6529;SDS011;3298;42.688;23.366;2022-10-22T04:55:51;20.90;;;14.30;;
6529;SDS011;3298;42.688;23.366;2022-10-22T04:58:18;18.10;;;12.27;;
6529;SDS011;3298;42.688;23.366;2022-10-22T05:00:45;19.47;;;12.63;;
6529;SDS011;3298;42.688;23.366;2022-10-22T05:03:13;20.80;;;12.63;;
6529;SDS011;3298;42.688;23.366;2022-10-22T05:05:40;20.07;;;12.97;;
6529;SDS011;3298;42.688;23.366;2022-10-22T05:08:06;17.93;;;11.93;;
6529;SDS011;3298;42.688;23.366;2022-10-22T05:10:33;21.87;;;12.17;;
6529;SDS011;3298;42.688;23.366;2022-10-22T05:13:00;18.97;;;11.70;;
6529;SDS011;3298;42.688;23.366;2022-10-22T05:15:27;18.77;;;12.53;;
6529;SDS011;3298;42.688;23.366;2022-10-22T05:17:54;21.90;;;12.63;;
6529;SDS011;3298;42.688;23.366;2022-10-22T05:20:22;15.30;;;11.73;;
6529;SDS011;3298;42.688;23.366;2022-10-22T05:22:48;19.17;;;12.13;;
6529;SDS011;3298;42.688;23.366;2022-10-22T05:25:15;18.20;;;11.53;;
6529;SDS011;3298;42.688;23.366;2022-10-22T05:27:42;18.50;;;12.20;;
6529;SDS011;3298;42.688;23.366;2022-10-22T05:30:09;17.47;;;12.33;;
6529;SDS011;3298;42.688;23.366;2022-10-22T05:32:36;16.93;;;12.13;;
6529;SDS011;3298;42.688;23.366;2022-10-22T05:35:03;18.03;;;12.57;;
6529;SDS011;3298;42.688;23.366;2022-10-22T05:37:32;19.87;;;13.00;;
6529;SDS011;3298;42.688;23.366;2022-10-22T05:39:59;22.97;;;12.37;;
6529;SDS011;3298;42.688;23.366;2022-10-22T05:42:30;19.90;;;12.83;;
6529;SDS011;3298;42.688;23.366;2022-10-22T05:44:56;22.07;;;12.10;;
6529;SDS011;3298;42.688;23.366;2022-10-22T05:47:23;23.43;;;13.23;;
6529;SDS011;3298;42.688;23.366;2022-10-22T05:49:50;22.03;;;12.80;;
6529;SDS011;3298;42.688;23.366;2022-10-22T05:52:17;22.30;;;13.00;;
6529;SDS011;3298;42.688;23.366;2022-10-22T05:54:45;20.30;;;14.27;;
6529;SDS011;3298;42.688;23.366;2022-10-22T05:57:12;21.70;;;13.37;;
6529;SDS011;3298;42.688;23.366;2022-10-22T05:59:39;22.87;;;13.43;;
6529;SDS011;3298;42.688;23.366;2022-10-22T06:02:07;20.03;;;13.03;;
6529;SDS011;3298;42.688;23.366;2022-10-22T06:04:34;18.07;;;13.20;;
6529;SDS011;3298;42.688;23.366;2022-10-22T06:07:01;18.90;;;13.67;;
6529;SDS011;3298;42.688;23.366;2022-10-22T06:09:29;22.83;;;14.40;;
6529;SDS011;3298;42.688;23.366;2022-10-22T06:12:00;18.77;;;14.13;;
6529;SDS011;3298;42.688;23.366;2022-10-22T06:14:28;24.13;;;14.80;;
6529;SDS011;3298;42.688;23.366;2022-10-22T06:16:57;20.93;;;13.97;;
6529;SDS011;3298;42.688;23.366;2022-10-22T06:19:25;18.63;;;14.53;;
6529;SDS011;3298;42.688;23.366;2022-10-22T06:21:52;21.83;;;13.93;;
6529;SDS011;3298;42.688;23.366;2022-10-22T06:24:19;21.67;;;13.93;;
6529;SDS011;3298;42.688;23.366;2022-10-22T06:26:48;23.37;;;14.20;;
6529;SDS011;3298;42.688;23.366;2022-10-22T06:29:16;22.47;;;14.53;;
6529;SDS011;3298;42.688;23.366;2022-10-22T06:31:43;25.17;;;15.43;;
6529;SDS011;3298;42.688;23.366;2022-10-22T06:34:10;21.00;;;14.50;;
6529;SDS011;3298;42.688;23.366;2022-10-22T06:36:38;18.87;;;14.10;;
6529;SDS011;3298;42.688;23.366;2022-10-22T06:39:08;25.20;;;15.43;;
6529;SDS011;3298;42.688;23.366;2022-10-22T06:41:36;25.70;;;13.83;;
6529;SDS011;3298;42.688;23.366;2022-10-22T06:44:03;24.83;;;14.87;;
6529;SDS011;3298;42.688;23.366;2022-10-22T06:46:32;23.07;;;14.33;;
6529;SDS011;3298;42.688;23.366;2022-10-22T06:48:59;22.90;;;13.37;;
6529;SDS011;3298;42.688;23.366;2022-10-22T06:51:28;32.20;;;15.60;;
6529;SDS011;3298;42.688;23.366;2022-10-22T06:53:55;27.60;;;14.97;;
6529;SDS011;3298;42.688;23.366;2022-10-22T06:56:24;23.50;;;14.90;;
6529;SDS011;3298;42.688;23.366;2022-10-22T06:58:53;21.27;;;14.43;;
6529;SDS011;3298;42.688;23.366;2022-10-22T07:01:21;21.57;;;15.23;;
6529;SDS011;3298;42.688;23.366;2022-10-22T07:03:51;23.97;;;15.63;;
6529;SDS011;3298;42.688;23.366;2022-10-22T07:06:19;19.23;;;15.20;;
6529;SDS011;3298;42.688;23.366;2022-10-22T07:08:47;21.07;;;15.67;;
6529;SDS011;3298;42.688;23.366;2022-10-22T07:11:15;22.73;;;15.20;;
6529;SDS011;3298;42.688;23.366;2022-10-22T07:13:42;27.23;;;15.40;;
6529;SDS011;3298;42.688;23.366;2022-10-22T07:16:10;23.50;;;15.23;;
6529;SDS011;3298;42.688;23.366;2022-10-22T07:18:38;22.47;;;14.57;;
6529;SDS011;3298;42.688;23.366;2022-10-22T07:21:08;26.70;;;15.73;;
6529;SDS011;3298;42.688;23.366;2022-10-22T07:23:35;23.00;;;16.70;;
6529;SDS011;3298;42.688;23.366;2022-10-22T07:26:03;22.73;;;15.70;;
6529;SDS011;3298;42.688;23.366;2022-10-22T07:28:31;25.47;;;17.30;;
6529;SDS011;3298;42.688;23.366;2022-10-22T07:30:58;21.43;;;16.27;;
6529;SDS011;3298;42.688;23.366;2022-10-22T07:33:25;32.53;;;16.67;;
6529;SDS011;3298;42.688;23.366;2022-10-22T07:35:56;20.07;;;14.60;;
6529;SDS011;3298;42.688;23.366;2022-10-22T07:38:24;24.63;;;16.73;;
6529;SDS011;3298;42.688;23.366;2022-10-22T07:40:51;23.03;;;15.50;;
6529;SDS011;3298;42.688;23.366;2022-10-22T07:43:18;23.33;;;14.53;;
6529;SDS011;3298;42.688;23.366;2022-10-22T07:45:45;21.17;;;14.93;;
6529;SDS011;3298;42.688;23.366;2022-10-22T07:48:12;19.93;;;14.23;;
6529;SDS011;3298;42.688;23.366;2022-10-22T07:50:39;28.07;;;16.37;;
6529;SDS011;3298;42.688;23.366;2022-10-22T07:53:06;23.80;;;16.40;;
6529;SDS011;3298;42.688;23.366;2022-10-22T07:55:34;20.10;;;15.00;;
6529;SDS011;3298;42.688;23.366;2022-10-22T07:58:01;28.80;;;15.90;;
6529;SDS011;3298;42.688;23.366;2022-10-22T08:00:28;24.30;;;17.57;;
6529;SDS011;3298;42.688;23.366;2022-10-22T08:02:55;21.77;;;15.73;;
6529;SDS011;3298;42.688;23.366;2022-10-22T08:05:22;27.47;;;16.90;;
6529;SDS011;3298;42.688;23.366;2022-10-22T08:07:49;21.27;;;16.17;;
6529;SDS011;3298;42.688;23.366;2022-10-22T08:10:15;23.37;;;16.30;;
6529;SDS011;3298;42.688;23.366;2022-10-22T08:12:44;25.57;;;17.00;;
6529;SDS011;3298;42.688;23.366;2022-10-22T08:15:10;28.20;;;17.60;;
6529;SDS011;3298;42.688;23.366;2022-10-22T08:17:37;25.07;;;16.27;;
6529;SDS011;3298;42.688;23.366;2022-10-22T08:20:04;23.07;;;15.30;;
6529;SDS011;3298;42.688;23.366;2022-10-22T08:22:32;26.80;;;16.13;;
6529;SDS011;3298;42.688;23.366;2022-10-22T08:24:58;22.00;;;14.80;;
6529;SDS011;3298;42.688;23.366;2022-10-22T08:27:25;24.13;;;16.77;;
6529;SDS011;3298;42.688;23.366;2022-10-22T08:29:53;27.73;;;16.17;;
6529;SDS011;3298;42.688;23.366;2022-10-22T08:32:20;26.57;;;16.83;;
6529;SDS011;3298;42.688;23.366;2022-10-22T08:34:47;25.50;;;17.13;;
6529;SDS011;3298;42.688;23.366;2022-10-22T08:37:14;25.57;;;17.47;;
6529;SDS011;3298;42.688;23.366;2022-10-22T08:39:41;29.30;;;17.97;;
6529;SDS011;3298;42.688;23.366;2022-10-22T08:42:15;25.70;;;16.70;;
6529;SDS011;3298;42.688;23.366;2022-10-22T08:45:01;22.63;;;16.50;;
6529;SDS011;3298;42.688;23.366;2022-10-22T08:47:37;24.80;;;16.63;;
6529;SDS011;3298;42.688;23.366;2022-10-22T08:50:15;22.37;;;14.83;;
6529;SDS011;3298;42.688;23.366;2022-10-22T08:52:48;20.70;;;14.50;;
6529;SDS011;3298;42.688;23.366;2022-10-22T08:55:20;27.33;;;14.97;;
6529;SDS011;3298;42.688;23.366;2022-10-22T08:57:51;19.37;;;14.50;;
6529;SDS011;3298;42.688;23.366;2022-10-22T09:00:30;21.90;;;13.97;;
6529;SDS011;3298;42.688;23.366;2022-10-22T09:03:04;25.13;;;14.30;;
6529;SDS011;3298;42.688;23.366;2022-10-22T09:05:45;14.30;;;11.43;;
6529;SDS011;3298;42.688;23.366;2022-10-22T09:08:18;15.60;;;11.00;;
6529;SDS011;3298;42.688;23.366;2022-10-22T09:10:46;16.73;;;11.40;;
6529;SDS011;3298;42.688;23.366;2022-10-22T09:13:17;11.87;;;10.23;;
6529;SDS011;3298;42.688;23.366;2022-10-22T09:15:47;15.00;;;11.10;;
6529;SDS011;3298;42.688;23.366;2022-10-22T09:18:21;12.33;;;10.40;;
6529;SDS011;3298;42.688;23.366;2022-10-22T09:21:00;17.67;;;9.97;;
6529;SDS011;3298;42.688;23.366;2022-10-22T09:23:32;13.37;;;8.63;;
6529;SDS011;3298;42.688;23.366;2022-10-22T09:26:05;11.17;;;9.97;;
6529;SDS011;3298;42.688;23.366;2022-10-22T09:28:39;13.70;;;10.10;;
6529;SDS011;3298;42.688;23.366;2022-10-22T09:31:10;12.47;;;10.00;;
6529;SDS011;3298;42.688;23.366;2022-10-22T09:33:38;11.00;;;9.77;;
6529;SDS011;3298;42.688;23.366;2022-10-22T09:36:05;16.23;;;10.80;;
6529;SDS011;3298;42.688;23.366;2022-10-22T09:38:38;11.60;;;10.13;;
6529;SDS011;3298;42.688;23.366;2022-10-22T09:41:06;17.63;;;9.80;;
6529;SDS011;3298;42.688;23.366;2022-10-22T09:43:34;13.73;;;11.07;;
6529;SDS011;3298;42.688;23.366;2022-10-22T09:46:02;13.57;;;9.93;;
6529;SDS011;3298;42.688;23.366;2022-10-22T09:48:33;11.03;;;9.93;;
6529;SDS011;3298;42.688;23.366;2022-10-22T09:51:04;12.37;;;10.20;;
6529;SDS011;3298;42.688;23.366;2022-10-22T09:53:37;11.73;;;10.53;;
6529;SDS011;3298;42.688;23.366;2022-10-22T09:56:08;12.43;;;10.17;;
6529;SDS011;3298;42.688;23.366;2022-10-22T09:58:42;11.27;;;10.10;;
6529;SDS011;3298;42.688;23.366;2022-10-22T10:01:16;11.07;;;9.93;;
6529;SDS011;3298;42.688;23.366;2022-10-22T10:03:45;14.73;;;9.93;;
6529;SDS011;3298;42.688;23.366;2022-10-22T10:06:16;12.93;;;10.20;;
6529;SDS011;3298;42.688;23.366;2022-10-22T10:08:43;15.90;;;11.10;;
6529;SDS011;3298;42.688;23.366;2022-10-22T10:11:11;11.30;;;10.10;;
6529;SDS011;3298;42.688;23.366;2022-10-22T10:13:51;16.83;;;10.17;;
6529;SDS011;3298;42.688;23.366;2022-10-22T10:16:25;16.83;;;10.27;;
6529;SDS011;3298;42.688;23.366;2022-10-22T10:19:06;15.00;;;9.60;;
6529;SDS011;3298;42.688;23.366;2022-10-22T10:21:44;10.83;;;9.73;;
6529;SDS011;3298;42.688;23.366;2022-10-22T10:24:20;13.83;;;9.67;;
6529;SDS011;3298;42.688;23.366;2022-10-22T10:26:53;12.77;;;9.60;;
6529;SDS011;3298;42.688;23.366;2022-10-22T10:29:26;13.10;;;9.50;;
6529;SDS011;3298;42.688;23.366;2022-10-22T10:32:06;16.00;;;9.73;;
6529;SDS011;3298;42.688;23.366;2022-10-22T10:34:47;11.67;;;9.70;;
6529;SDS011;3298;42.688;23.366;2022-10-22T10:37:22;10.70;;;9.67;;
6529;SDS011;3298;42.688;23.366;2022-10-22T10:39:56;14.53;;;9.27;;
6529;SDS011;3298;42.688;23.366;2022-10-22T10:42:38;13.37;;;9.47;;
6529;SDS011;3298;42.688;23.366;2022-10-22T10:45:12;12.10;;;9.30;;
6529;SDS011;3298;42.688;23.366;2022-10-22T10:47:48;10.17;;;9.10;;
6529;SDS011;3298;42.688;23.366;2022-10-22T10:50:29;14.47;;;9.67;;
6529;SDS011;3298;42.688;23.366;2022-10-22T10:53:05;10.23;;;9.17;;
6529;SDS011;3298;42.688;23.366;2022-10-22T10:55:40;11.73;;;9.03;;
6529;SDS011;3298;42.688;23.366;2022-10-22T10:58:20;8.97;;;8.17;;
6529;SDS011;3298;42.688;23.366;2022-10-22T11:00:56;11.20;;;8.67;;
6529;SDS011;3298;42.688;23.366;2022-10-22T11:03:39;10.10;;;8.43;;
6529;SDS011;3298;42.688;23.366;2022-10-22T11:06:16;9.82;;;8.85;;
6529;SDS011;3298;42.688;23.366;2022-10-22T11:08:45;9.80;;;8.73;;
6529;SDS011;3298;42.688;23.366;2022-10-22T11:11:20;9.43;;;8.60;;
6529;SDS011;3298;42.688;23.366;2022-10-22T11:13:52;11.13;;;8.57;;
6529;SDS011;3298;42.688;23.366;2022-10-22T11:16:25;8.73;;;7.93;;
6529;SDS011;3298;42.688;23.366;2022-10-22T11:19:02;11.03;;;7.97;;
6529;SDS011;3298;42.688;23.366;2022-10-22T11:21:37;9.60;;;8.70;;
6529;SDS011;3298;42.688;23.366;2022-10-22T11:24:10;10.80;;;8.77;;
6529;SDS011;3298;42.688;23.366;2022-10-22T11:26:45;8.60;;;7.67;;
6529;SDS011;3298;42.688;23.366;2022-10-22T11:29:18;9.77;;;8.80;;
6529;SDS011;3298;42.688;23.366;2022-10-22T11:31:48;10.37;;;9.23;;
6529;SDS011;3298;42.688;23.366;2022-10-22T11:34:18;9.60;;;8.53;;
6529;SDS011;3298;42.688;23.366;2022-10-22T11:36:51;9.83;;;8.97;;
6529;SDS011;3298;42.688;23.366;2022-10-22T11:39:29;11.80;;;8.40;;
6529;SDS011;3298;42.688;23.366;2022-10-22T11:42:01;8.53;;;7.83;;
6529;SDS011;3298;42.688;23.366;2022-10-22T11:44:30;8.83;;;8.00;;
6529;SDS011;3298;42.688;23.366;2022-10-22T11:47:14;12.67;;;8.40;;
6529;SDS011;3298;42.688;23.366;2022-10-22T11:49:45;12.00;;;7.70;;
6529;SDS011;3298;42.688;23.366;2022-10-22T11:52:26;9.27;;;7.43;;
6529;SDS011;3298;42.688;23.366;2022-10-22T11:57:58;14.07;;;7.63;;
6529;SDS011;3298;42.688;23.366;2022-10-22T12:00:32;8.10;;;7.30;;
6529;SDS011;3298;42.688;23.366;2022-10-22T12:03:13;9.20;;;8.33;;
6529;SDS011;3298;42.688;23.366;2022-10-22T12:05:42;7.13;;;6.43;;
6529;SDS011;3298;42.688;23.366;2022-10-22T12:08:19;9.63;;;6.80;;
6529;SDS011;3298;42.688;23.366;2022-10-22T12:10:49;6.97;;;6.47;;
6529;SDS011;3298;42.688;23.366;2022-10-22T12:13:23;8.03;;;7.23;;
6529;SDS011;3298;42.688;23.366;2022-10-22T12:15:54;12.40;;;7.67;;
6529;SDS011;3298;42.688;23.366;2022-10-22T12:18:24;11.13;;;6.80;;
6529;SDS011;3298;42.688;23.366;2022-10-22T12:20:53;13.77;;;6.87;;
6529;SDS011;3298;42.688;23.366;2022-10-22T12:23:24;8.30;;;6.90;;
6529;SDS011;3298;42.688;23.366;2022-10-22T12:25:55;12.00;;;7.43;;
6529;SDS011;3298;42.688;23.366;2022-10-22T12:28:22;7.33;;;6.33;;
6529;SDS011;3298;42.688;23.366;2022-10-22T12:30:49;7.97;;;6.60;;
6529;SDS011;3298;42.688;23.366;2022-10-22T12:33:17;10.40;;;6.57;;
6529;SDS011;3298;42.688;23.366;2022-10-22T12:35:46;7.53;;;6.90;;
6529;SDS011;3298;42.688;23.366;2022-10-22T12:38:17;7.47;;;6.83;;
6529;SDS011;3298;42.688;23.366;2022-10-22T12:40:48;6.70;;;6.10;;
6529;SDS011;3298;42.688;23.366;2022-10-22T12:43:16;13.03;;;6.67;;
6529;SDS011;3298;42.688;23.366;2022-10-22T12:45:45;9.90;;;6.17;;
6529;SDS011;3298;42.688;23.366;2022-10-22T12:48:15;7.93;;;7.27;;
6529;SDS011;3298;42.688;23.366;2022-10-22T12:50:44;6.10;;;5.70;;
6529;SDS011;3298;42.688;23.366;2022-10-22T12:53:14;6.43;;;5.93;;
6529;SDS011;3298;42.688;23.366;2022-10-22T12:55:44;7.17;;;6.57;;
6529;SDS011;3298;42.688;23.366;2022-10-22T12:58:17;7.83;;;6.00;;
6529;SDS011;3298;42.688;23.366;2022-10-22T13:00:45;8.93;;;6.17;;
6529;SDS011;3298;42.688;23.366;2022-10-22T13:03:20;7.47;;;5.77;;
6529;SDS011;3298;42.688;23.366;2022-10-22T13:05:52;6.57;;;5.90;;
6529;SDS011;3298;42.688;23.366;2022-10-22T13:08:19;9.50;;;5.77;;
6529;SDS011;3298;42.688;23.366;2022-10-22T13:10:48;8.43;;;5.17;;
6529;SDS011;3298;42.688;23.366;2022-10-22T13:13:30;6.73;;;5.97;;
6529;SDS011;3298;42.688;23.366;2022-10-22T13:16:12;6.13;;;5.20;;
6529;SDS011;3298;42.688;23.366;2022-10-22T13:18:40;7.33;;;5.50;;
6529;SDS011;3298;42.688;23.366;2022-10-22T13:21:19;5.17;;;4.77;;
6529;SDS011;3298;42.688;23.366;2022-10-22T13:23:51;6.63;;;5.97;;
6529;SDS011;3298;42.688;23.366;2022-10-22T13:26:19;6.97;;;5.60;;
6529;SDS011;3298;42.688;23.366;2022-10-22T13:28:51;5.60;;;5.07;;
6529;SDS011;3298;42.688;23.366;2022-10-22T13:31:20;6.33;;;5.70;;
6529;SDS011;3298;42.688;23.366;2022-10-22T13:33:50;6.03;;;5.47;;
6529;SDS011;3298;42.688;23.366;2022-10-22T13:36:19;6.23;;;5.63;;
6529;SDS011;3298;42.688;23.366;2022-10-22T13:38:46;8.60;;;6.00;;
6529;SDS011;3298;42.688;23.366;2022-10-22T13:41:20;8.13;;;6.07;;
6529;SDS011;3298;42.688;23.366;2022-10-22T13:43:48;8.23;;;6.13;;
6529;SDS011;3298;42.688;23.366;2022-10-22T13:46:17;11.07;;;5.27;;
6529;SDS011;3298;42.688;23.366;2022-10-22T13:48:44;13.97;;;5.77;;
6529;SDS011;3298;42.688;23.366;2022-10-22T13:51:12;8.67;;;5.90;;
6529;SDS011;3298;42.688;23.366;2022-10-22T13:53:41;6.67;;;5.23;;
6529;SDS011;3298;42.688;23.366;2022-10-22T13:56:11;6.20;;;5.60;;
6529;SDS011;3298;42.688;23.366;2022-10-22T13:58:40;6.80;;;6.20;;
6529;SDS011;3298;42.688;23.366;2022-10-22T14:01:10;6.53;;;5.23;;
6529;SDS011;3298;42.688;23.366;2022-10-22T14:03:45;9.30;;;6.13;;
6529;SDS011;3298;42.688;23.366;2022-10-22T14:06:14;6.20;;;5.80;;
6529;SDS011;3298;42.688;23.366;2022-10-22T14:08:43;10.53;;;5.90;;
6529;SDS011;3298;42.688;23.366;2022-10-22T14:11:12;5.23;;;4.83;;
6529;SDS011;3298;42.688;23.366;2022-10-22T14:13:39;7.63;;;5.10;;
6529;SDS011;3298;42.688;23.366;2022-10-22T14:16:06;7.47;;;5.53;;
6529;SDS011;3298;42.688;23.366;2022-10-22T14:18:43;6.83;;;5.70;;
6529;SDS011;3298;42.688;23.366;2022-10-22T14:21:10;5.67;;;5.07;;
6529;SDS011;3298;42.688;23.366;2022-10-22T14:23:39;7.33;;;5.67;;
6529;SDS011;3298;42.688;23.366;2022-10-22T14:26:09;6.70;;;6.10;;
6529;SDS011;3298;42.688;23.366;2022-10-22T14:28:45;7.03;;;6.30;;
6529;SDS011;3298;42.688;23.366;2022-10-22T14:31:12;7.17;;;4.77;;
6529;SDS011;3298;42.688;23.366;2022-10-22T14:33:39;6.13;;;5.63;;
6529;SDS011;3298;42.688;23.366;2022-10-22T14:36:07;7.97;;;6.27;;
6529;SDS011;3298;42.688;23.366;2022-10-22T14:38:34;7.37;;;6.43;;
6529;SDS011;3298;42.688;23.366;2022-10-22T14:41:01;10.70;;;7.03;;
6529;SDS011;3298;42.688;23.366;2022-10-22T14:43:29;8.47;;;6.37;;
6529;SDS011;3298;42.688;23.366;2022-10-22T14:45:56;10.93;;;6.00;;
6529;SDS011;3298;42.688;23.366;2022-10-22T14:48:23;7.27;;;6.57;;
6529;SDS011;3298;42.688;23.366;2022-10-22T14:50:50;6.93;;;5.97;;
6529;SDS011;3298;42.688;23.366;2022-10-22T14:53:18;8.00;;;6.43;;
6529;SDS011;3298;42.688;23.366;2022-10-22T14:55:46;9.83;;;7.20;;
6529;SDS011;3298;42.688;23.366;2022-10-22T14:58:13;14.10;;;6.43;;
6529;SDS011;3298;42.688;23.366;2022-10-22T15:00:40;16.77;;;9.03;;
6529;SDS011;3298;42.688;23.366;2022-10-22T15:03:07;11.57;;;8.07;;
6529;SDS011;3298;42.688;23.366;2022-10-22T15:05:34;9.27;;;8.37;;